Terminal Aerodrome Forecast
Issued by NWS Wilmington, NC

Home | Current Version | Previous Version | Text Only | Print | Product List | Glossary On
Versions: 1 2 3 4 5 6 7 8 9 10 11 12 13 14 15 16 17 18 19 20 21 22 23 24
000
FTUS42 KILM 050520
TAFLBT
TAF
KLBT 050520Z 0506/0606 18006KT P6SM SCT080
     FM050900 18006KT P6SM VCSH BKN030
     FM051600 21008KT P6SM BKN040
      TEMPO 0522/0602 4SM TSRA BKN030CB
     AMD NOT SKED=

USA.gov is the U.S. government's official web portal to all federal, state and local government web resources and services.